Time;durP1;ratioP1;P1;durP2;ratioP2;P2;SDS_P1;SDS_P2;PMS_P1;PMS_P2;Temp;Humidity;BMP_temperature;BMP_pressure;BME280_temperature;BME280_humidity;BME280_pressure;Samples;Min_cycle;Max_cycle;Signal;HPM_P1;HPM_P2
2023/08/03 00:01:29;;;;;;;2.15;0.80;;;17.50;95.70;;;;;;5072691;28;20499;-71
2023/08/03 00:03:57;;;;;;;2.47;1.08;;;17.40;95.80;;;;;;5072105;28;20025;-70
2023/08/03 00:06:22;;;;;;;1.98;0.95;;;17.50;95.90;;;;;;5072726;28;20387;-70
2023/08/03 00:08:48;;;;;;;1.70;1.00;;;17.40;95.90;;;;;;5072802;28;20029;-70
2023/08/03 00:11:13;;;;;;;3.22;1.02;;;17.40;96.00;;;;;;5073035;28;20125;-70
2023/08/03 00:13:39;;;;;;;2.42;1.05;;;17.40;96.00;;;;;;5072000;28;20102;-70
2023/08/03 00:16:05;;;;;;;1.38;0.90;;;17.50;96.00;;;;;;5072242;28;20112;-70
2023/08/03 00:18:30;;;;;;;1.10;0.90;;;17.50;96.10;;;;;;5072467;28;20482;-71
2023/08/03 00:20:56;;;;;;;1.83;0.90;;;17.50;96.10;;;;;;5071797;28;20032;-70
2023/08/03 00:23:21;;;;;;;1.60;1.00;;;17.50;96.20;;;;;;5072295;28;20044;-70
2023/08/03 00:25:47;;;;;;;1.77;1.02;;;17.50;96.20;;;;;;5072416;28;20024;-70
2023/08/03 00:28:12;;;;;;;2.17;1.10;;;17.50;96.10;;;;;;5072321;28;20025;-70
2023/08/03 00:30:38;;;;;;;2.55;1.05;;;17.50;96.10;;;;;;5071473;28;20503;-70
2023/08/03 00:33:03;;;;;;;0.95;0.82;;;17.50;96.20;;;;;;5072003;28;20364;-70
2023/08/03 00:35:29;;;;;;;1.95;1.20;;;17.50;96.20;;;;;;5072176;28;20544;-70
2023/08/03 00:37:55;;;;;;;1.95;1.17;;;17.60;96.20;;;;;;5071395;28;20039;-70
2023/08/03 00:40:20;;;;;;;1.95;1.10;;;17.60;96.20;;;;;;5070725;28;20020;-70
2023/08/03 00:42:46;;;;;;;1.77;1.10;;;17.60;96.20;;;;;;5072175;28;20021;-70
2023/08/03 00:45:12;;;;;;;1.73;0.95;;;17.50;96.10;;;;;;5071838;28;20020;-70
2023/08/03 00:47:39;;;;;;;1.42;1.10;;;17.60;96.10;;;;;;5071273;28;20289;-70
2023/08/03 00:50:06;;;;;;;2.38;1.05;;;17.60;96.10;;;;;;5072044;28;20463;-70
2023/08/03 00:52:34;;;;;;;2.08;1.10;;;17.60;96.20;;;;;;5071963;28;20060;-70
2023/08/03 00:55:00;;;;;;;3.17;1.33;;;17.60;96.30;;;;;;5070907;28;20495;-70
2023/08/03 00:57:27;;;;;;;1.30;1.10;;;17.60;96.30;;;;;;5062238;28;20016;-70
2023/08/03 00:59:53;;;;;;;1.45;1.20;;;17.60;96.50;;;;;;5071920;28;20016;-70
2023/08/03 01:02:19;;;;;;;1.65;1.00;;;17.60;96.50;;;;;;5069147;28;20387;-70
2023/08/03 01:04:44;;;;;;;1.58;1.30;;;17.60;96.50;;;;;;5057681;28;20032;-71
2023/08/03 01:07:10;;;;;;;1.25;1.10;;;17.60;96.50;;;;;;5071547;28;20450;-70
2023/08/03 01:09:35;;;;;;;2.72;1.38;;;17.60;96.60;;;;;;5071574;28;20024;-71
2023/08/03 01:12:01;;;;;;;1.85;1.30;;;17.60;96.60;;;;;;5068782;28;20035;-70
2023/08/03 01:14:27;;;;;;;2.78;1.60;;;17.60;96.70;;;;;;5071211;28;20040;-70
2023/08/03 01:16:52;;;;;;;4.18;2.03;;;17.60;96.80;;;;;;5071290;28;20078;-71
2023/08/03 01:19:18;;;;;;;2.00;1.65;;;17.60;96.90;;;;;;5071420;28;20033;-71
2023/08/03 01:21:46;;;;;;;1.67;1.20;;;17.60;97.00;;;;;;5070483;28;20020;-70
2023/08/03 01:24:12;;;;;;;3.00;1.70;;;17.60;97.10;;;;;;5071216;28;20479;-70
2023/08/03 01:26:38;;;;;;;2.53;1.55;;;17.60;97.10;;;;;;5069796;28;20025;-70
2023/08/03 01:29:03;;;;;;;2.08;1.10;;;17.60;97.20;;;;;;5071272;28;20090;-70
2023/08/03 01:31:29;;;;;;;1.75;1.10;;;17.60;97.10;;;;;;5070129;28;20432;-70
2023/08/03 01:33:55;;;;;;;1.20;1.10;;;17.60;97.00;;;;;;5071056;28;20064;-70
2023/08/03 01:36:21;;;;;;;2.97;1.10;;;17.60;97.00;;;;;;5071189;28;20019;-70
2023/08/03 01:39:13;;;;;;;1.75;1.15;;;17.60;97.00;;;;;;5070751;28;20486;-70
2023/08/03 01:41:41;;;;;;;2.55;1.15;;;17.60;96.90;;;;;;5063625;28;20398;-70
2023/08/03 01:44:21;;;;;;;2.05;1.02;;;17.60;96.90;;;;;;5071467;28;20027;-70
2023/08/03 01:46:47;;;;;;;2.70;1.05;;;17.70;96.80;;;;;;5071664;28;20028;-70
2023/08/03 01:49:13;;;;;;;3.25;1.15;;;17.70;96.70;;;;;;5070264;28;20028;-70
2023/08/03 01:51:40;;;;;;;1.85;1.20;;;17.70;96.80;;;;;;5070860;28;20078;-70
2023/08/03 01:54:06;;;;;;;2.97;1.33;;;17.70;96.70;;;;;;5070709;28;20025;-70
2023/08/03 01:56:32;;;;;;;3.15;1.58;;;17.70;96.70;;;;;;5070644;28;20050;-70
2023/08/03 01:58:57;;;;;;;4.13;1.65;;;17.70;96.80;;;;;;5070271;28;20117;-70
2023/08/03 02:01:23;;;;;;;3.58;1.80;;;17.70;96.80;;;;;;5070684;28;20023;-70
2023/08/03 02:03:48;;;;;;;3.72;1.67;;;17.70;96.80;;;;;;5069753;28;20386;-70
2023/08/03 02:06:14;;;;;;;5.72;2.00;;;17.80;96.80;;;;;;5068955;28;20031;-70
2023/08/03 02:08:39;;;;;;;5.75;2.00;;;17.80;96.80;;;;;;5070401;28;20021;-70
2023/08/03 02:11:05;;;;;;;4.43;1.90;;;17.80;96.80;;;;;;5069587;28;20044;-70
2023/08/03 02:13:30;;;;;;;5.32;1.98;;;17.90;96.80;;;;;;5070149;28;20062;-69
2023/08/03 02:15:56;;;;;;;3.97;1.90;;;17.80;96.90;;;;;;5069014;28;20387;-70
2023/08/03 02:18:22;;;;;;;6.00;2.10;;;17.90;96.90;;;;;;5070589;28;20025;-69
2023/08/03 02:20:47;;;;;;;4.82;2.10;;;17.90;96.90;;;;;;5069367;28;20248;-70
2023/08/03 02:23:13;;;;;;;3.50;2.10;;;17.90;97.00;;;;;;5068841;28;20024;-70
2023/08/03 02:25:38;;;;;;;6.43;2.20;;;17.90;97.00;;;;;;5069932;28;20032;-70
2023/08/03 02:28:04;;;;;;;6.93;2.30;;;17.90;97.10;;;;;;5069571;28;20028;-70
2023/08/03 02:30:30;;;;;;;6.15;2.13;;;18.00;97.10;;;;;;5069844;28;20031;-70
2023/08/03 02:32:56;;;;;;;6.15;2.20;;;18.00;97.00;;;;;;5069972;28;20498;-70
2023/08/03 02:35:22;;;;;;;4.88;2.10;;;18.00;97.00;;;;;;5069892;28;20017;-70
2023/08/03 02:37:47;;;;;;;7.13;2.30;;;18.10;96.90;;;;;;5069337;28;20093;-70
2023/08/03 02:40:13;;;;;;;6.10;2.25;;;18.10;96.90;;;;;;5069338;28;20475;-70
2023/08/03 02:42:38;;;;;;;5.03;2.60;;;18.10;96.90;;;;;;5070204;28;20028;-70
2023/08/03 02:45:04;;;;;;;5.88;2.90;;;18.10;96.90;;;;;;5070152;28;20025;-71
2023/08/03 02:47:30;;;;;;;3.67;2.15;;;18.10;96.80;;;;;;5069296;28;20025;-70
2023/08/03 02:49:55;;;;;;;5.28;2.42;;;18.20;96.80;;;;;;5068949;28;20360;-70
2023/08/03 02:52:21;;;;;;;5.70;2.65;;;18.10;96.80;;;;;;5070094;28;20349;-70
2023/08/03 02:54:46;;;;;;;5.85;2.83;;;18.20;96.90;;;;;;5069746;28;20079;-70
2023/08/03 02:57:12;;;;;;;5.70;2.53;;;18.20;96.90;;;;;;5068998;28;20059;-70
2023/08/03 02:59:38;;;;;;;5.25;2.80;;;18.20;96.90;;;;;;5070204;28;20020;-70
2023/08/03 03:02:03;;;;;;;8.48;3.00;;;18.20;96.80;;;;;;5070016;28;20027;-70
2023/08/03 03:04:29;;;;;;;3.67;2.33;;;18.10;96.70;;;;;;5062196;28;20089;-70
2023/08/03 03:06:54;;;;;;;5.75;2.38;;;18.20;96.70;;;;;;5070149;28;20479;-70
2023/08/03 03:09:20;;;;;;;4.75;2.45;;;18.10;97.00;;;;;;5069629;28;20044;-70
2023/08/03 03:11:45;;;;;;;7.65;3.10;;;18.10;96.70;;;;;;5068409;28;20182;-70
2023/08/03 03:14:11;;;;;;;6.57;2.60;;;18.10;96.80;;;;;;5064231;28;20040;-71
2023/08/03 03:16:36;;;;;;;4.60;2.25;;;18.10;96.80;;;;;;5068474;28;20013;-70
2023/08/03 03:19:02;;;;;;;4.90;2.20;;;18.10;96.80;;;;;;5069516;28;20013;-70
2023/08/03 03:21:28;;;;;;;5.78;2.20;;;18.00;97.10;;;;;;5067665;28;20020;-70
2023/08/03 03:23:53;;;;;;;5.80;2.28;;;18.00;97.10;;;;;;5069328;28;20426;-70
2023/08/03 03:26:19;;;;;;;5.13;2.10;;;18.10;96.80;;;;;;5069672;28;20033;-71
2023/08/03 03:28:44;;;;;;;5.75;2.58;;;18.10;96.80;;;;;;5068941;28;20570;-70
2023/08/03 03:31:10;;;;;;;4.38;2.40;;;18.10;96.70;;;;;;5069571;28;20433;-70
2023/08/03 03:33:35;;;;;;;3.65;2.13;;;18.10;96.70;;;;;;5069514;28;20036;-70
2023/08/03 03:36:01;;;;;;;4.15;1.95;;;18.10;96.70;;;;;;5066191;28;20103;-70
2023/08/03 03:38:26;;;;;;;2.83;1.50;;;18.10;96.60;;;;;;5069386;28;20032;-70
2023/08/03 03:40:52;;;;;;;3.67;1.50;;;18.10;96.50;;;;;;5067829;28;20096;-70
2023/08/03 03:43:18;;;;;;;2.85;1.60;;;18.20;96.40;;;;;;5068257;28;20447;-70
2023/08/03 03:45:43;;;;;;;2.60;1.30;;;18.20;96.30;;;;;;5068553;28;20398;-69
2023/08/03 03:48:09;;;;;;;3.60;1.30;;;18.10;96.20;;;;;;5069238;28;20074;-71
2023/08/03 03:50:34;;;;;;;1.98;1.58;;;18.20;96.20;;;;;;5069703;28;20059;-71
2023/08/03 03:53:00;;;;;;;1.73;1.33;;;18.10;96.20;;;;;;5071014;28;20093;-71
2023/08/03 03:55:25;;;;;;;1.58;1.10;;;18.10;96.20;;;;;;5064588;28;20548;-70
2023/08/03 03:57:51;;;;;;;1.52;1.17;;;18.10;96.20;;;;;;5072750;28;20024;-71
2023/08/03 04:00:16;;;;;;;1.38;0.90;;;18.10;96.20;;;;;;5072972;28;20024;-71
2023/08/03 04:02:42;;;;;;;1.10;1.00;;;18.10;96.20;;;;;;5070714;28;20020;-71
2023/08/03 04:05:08;;;;;;;1.52;1.00;;;18.10;96.20;;;;;;5071922;28;20021;-71
2023/08/03 04:07:33;;;;;;;1.15;1.00;;;18.10;96.20;;;;;;5071144;28;20017;-70
2023/08/03 04:09:59;;;;;;;3.22;1.27;;;18.10;96.20;;;;;;5072985;28;20028;-70
2023/08/03 04:12:24;;;;;;;4.13;1.50;;;18.10;96.20;;;;;;5071959;28;20021;-71
2023/08/03 04:14:50;;;;;;;1.83;1.40;;;18.10;96.20;;;;;;5073072;28;20025;-71
2023/08/03 04:17:15;;;;;;;2.08;1.30;;;18.00;96.30;;;;;;5072987;28;20021;-70
2023/08/03 04:19:41;;;;;;;3.05;1.90;;;17.90;96.40;;;;;;5073053;28;20025;-70
2023/08/03 04:22:06;;;;;;;2.90;1.40;;;17.90;96.60;;;;;;5071640;28;20029;-70
2023/08/03 04:24:32;;;;;;;5.53;2.08;;;17.90;96.80;;;;;;5072484;28;20530;-70
2023/08/03 04:26:57;;;;;;;5.28;1.80;;;17.90;96.90;;;;;;5072633;28;20074;-70
2023/08/03 04:29:23;;;;;;;3.15;1.67;;;17.90;96.90;;;;;;5072332;28;20095;-71
2023/08/03 04:31:48;;;;;;;3.20;1.70;;;17.80;97.00;;;;;;5071555;28;20376;-70
2023/08/03 04:34:14;;;;;;;4.20;1.77;;;17.80;97.10;;;;;;5072090;28;20024;-71
2023/08/03 04:36:40;;;;;;;2.83;1.80;;;17.80;97.10;;;;;;5072205;28;20040;-71
2023/08/03 04:39:06;;;;;;;4.07;2.13;;;17.80;97.20;;;;;;5071467;28;20017;-70
2023/08/03 04:41:31;;;;;;;5.57;2.00;;;17.80;97.20;;;;;;5072152;28;20061;-70
2023/08/03 04:43:57;;;;;;;3.17;2.10;;;17.80;97.30;;;;;;5072033;28;20391;-70
2023/08/03 04:46:23;;;;;;;3.28;2.13;;;17.80;97.30;;;;;;5071287;28;20020;-70
2023/08/03 04:48:48;;;;;;;6.63;2.55;;;17.80;97.20;;;;;;5071700;28;20479;-70
2023/08/03 04:51:14;;;;;;;6.60;1.80;;;17.80;97.20;;;;;;5071916;28;20028;-71
2023/08/03 04:53:39;;;;;;;3.85;2.03;;;17.80;97.50;;;;;;5070579;28;20044;-71
2023/08/03 04:56:05;;;;;;;2.55;1.65;;;17.80;97.30;;;;;;5070870;28;20510;-71
2023/08/03 04:58:31;;;;;;;4.30;1.65;;;17.80;97.40;;;;;;5071782;28;20009;-70
2023/08/03 05:00:57;;;;;;;3.58;1.70;;;17.80;97.40;;;;;;5071703;28;20028;-70
2023/08/03 05:03:22;;;;;;;4.32;1.50;;;17.80;97.50;;;;;;5070738;28;20730;-70
2023/08/03 05:05:48;;;;;;;5.63;1.85;;;17.80;97.50;;;;;;5068378;28;20055;-70
2023/08/03 05:08:14;;;;;;;4.32;1.77;;;17.80;97.50;;;;;;5071065;28;20435;-70
2023/08/03 05:10:39;;;;;;;4.07;1.73;;;17.80;97.50;;;;;;5071682;28;20024;-71
2023/08/03 05:13:05;;;;;;;4.75;1.80;;;17.80;97.50;;;;;;5071155;28;20034;-70
2023/08/03 05:15:30;;;;;;;6.28;1.60;;;17.80;97.40;;;;;;5070729;28;20021;-71
2023/08/03 05:17:56;;;;;;;5.05;1.65;;;17.80;97.40;;;;;;5071310;28;20522;-71
2023/08/03 05:20:22;;;;;;;4.53;1.48;;;17.90;97.40;;;;;;5071516;28;20027;-70
2023/08/03 05:22:47;;;;;;;6.78;1.88;;;17.90;97.30;;;;;;5071174;28;20028;-70
2023/08/03 05:25:14;;;;;;;3.05;1.50;;;17.90;97.30;;;;;;5070585;28;20021;-70
2023/08/03 05:27:40;;;;;;;6.35;2.08;;;17.90;97.20;;;;;;5071021;28;20081;-70
2023/08/03 05:30:07;;;;;;;5.43;1.65;;;17.90;97.50;;;;;;5071313;28;20024;-70
2023/08/03 05:32:33;;;;;;;5.35;1.60;;;17.90;97.20;;;;;;5071274;28;20033;-70
2023/08/03 05:34:58;;;;;;;3.95;1.45;;;17.80;97.20;;;;;;5070102;28;20077;-70
2023/08/03 05:37:24;;;;;;;4.47;1.50;;;17.90;97.20;;;;;;5070818;28;20042;-70
2023/08/03 05:39:49;;;;;;;3.75;1.42;;;17.90;97.20;;;;;;5071122;28;20386;-70
2023/08/03 05:42:17;;;;;;;4.32;1.30;;;17.90;97.20;;;;;;5070928;28;20070;-70
2023/08/03 05:44:43;;;;;;;3.45;1.40;;;18.00;97.10;;;;;;5070165;28;20073;-69
2023/08/03 05:47:10;;;;;;;2.80;1.20;;;18.00;97.00;;;;;;5070769;28;20033;-70
2023/08/03 05:49:39;;;;;;;3.55;1.23;;;18.00;97.00;;;;;;5070761;28;20483;-71
2023/08/03 05:52:06;;;;;;;2.85;1.30;;;17.90;97.10;;;;;;5069883;28;20043;-71
2023/08/03 05:54:32;;;;;;;2.72;1.20;;;17.90;97.20;;;;;;5070571;28;20051;-70
2023/08/03 05:56:57;;;;;;;4.60;1.50;;;17.90;97.20;;;;;;5070712;28;20399;-71
2023/08/03 05:59:23;;;;;;;4.65;1.40;;;17.90;97.30;;;;;;5069368;28;20051;-71
2023/08/03 06:01:51;;;;;;;4.57;1.48;;;17.90;97.40;;;;;;5069857;28;20430;-71
2023/08/03 06:04:17;;;;;;;6.43;1.60;;;17.90;97.40;;;;;;5069603;28;20051;-71
2023/08/03 06:06:44;;;;;;;5.40;1.40;;;17.80;97.40;;;;;;5070372;28;20500;-71
2023/08/03 06:09:11;;;;;;;3.90;1.55;;;17.80;97.40;;;;;;5070317;28;20427;-71
2023/08/03 06:11:38;;;;;;;4.15;1.40;;;17.80;97.40;;;;;;5070399;28;20053;-71
2023/08/03 06:14:05;;;;;;;3.67;1.40;;;17.80;97.50;;;;;;5067566;28;20025;-68
2023/08/03 06:16:31;;;;;;;5.57;1.70;;;17.80;97.40;;;;;;5069792;28;20025;-70
2023/08/03 06:19:00;;;;;;;4.45;1.52;;;17.80;97.40;;;;;;5070258;28;20025;-70
2023/08/03 06:21:27;;;;;;;5.55;1.83;;;17.80;97.40;;;;;;5070294;28;20020;-69
2023/08/03 06:23:57;;;;;;;5.18;1.55;;;17.90;97.40;;;;;;5069461;28;20034;-69
2023/08/03 06:26:23;;;;;;;4.80;1.63;;;17.90;97.30;;;;;;5069997;28;20021;-70
2023/08/03 06:28:53;;;;;;;4.43;1.45;;;17.90;97.30;;;;;;5070331;28;20025;-69
2023/08/03 06:31:21;;;;;;;5.38;1.50;;;17.80;97.20;;;;;;5069264;28;20036;-69
2023/08/03 06:33:47;;;;;;;4.38;1.48;;;17.80;97.30;;;;;;5070110;28;20027;-69
2023/08/03 06:36:43;;;;;;;3.78;1.60;;;17.80;97.30;;;;;;5068667;28;20068;-69
2023/08/03 06:39:09;;;;;;;4.90;1.90;;;17.80;97.30;;;;;;5069508;28;20141;-69
2023/08/03 06:41:35;;;;;;;3.10;1.60;;;17.70;97.30;;;;;;5069509;28;20012;-69
2023/08/03 06:44:01;;;;;;;6.22;2.22;;;17.80;97.40;;;;;;5070415;28;20017;-69
2023/08/03 06:46:27;;;;;;;4.82;1.70;;;17.70;97.30;;;;;;5070461;28;20028;-70
2023/08/03 06:48:53;;;;;;;7.00;1.70;;;17.80;97.30;;;;;;5070329;28;20025;-70
2023/08/03 06:51:20;;;;;;;5.57;1.80;;;17.80;97.30;;;;;;5069251;28;20024;-70
2023/08/03 06:53:47;;;;;;;4.95;1.77;;;17.80;97.20;;;;;;5069966;28;20028;-69
2023/08/03 06:56:12;;;;;;;4.07;1.45;;;17.80;97.10;;;;;;5069829;28;20479;-69
2023/08/03 06:58:38;;;;;;;5.30;1.80;;;17.90;97.10;;;;;;5069105;28;20039;-69
2023/08/03 07:01:04;;;;;;;6.65;2.15;;;17.90;97.00;;;;;;5069607;28;20075;-69
2023/08/03 07:03:30;;;;;;;6.35;1.90;;;17.90;97.00;;;;;;5069029;28;20021;-69
2023/08/03 07:05:55;;;;;;;7.97;1.60;;;17.90;96.90;;;;;;5068322;28;20025;-69
2023/08/03 07:08:21;;;;;;;5.50;1.70;;;18.00;96.90;;;;;;5069869;28;20090;-69
2023/08/03 07:10:46;;;;;;;4.80;1.65;;;18.00;97.00;;;;;;5069876;28;20115;-69
2023/08/03 07:13:13;;;;;;;4.88;1.60;;;18.00;96.90;;;;;;5068696;28;20039;-69
2023/08/03 07:15:38;;;;;;;4.50;1.48;;;18.00;96.80;;;;;;5069575;28;20016;-69
2023/08/03 07:18:05;;;;;;;4.50;1.70;;;18.00;96.80;;;;;;5069531;28;20025;-68
2023/08/03 07:20:33;;;;;;;7.22;1.92;;;18.00;96.80;;;;;;5070197;28;20017;-69
2023/08/03 07:22:58;;;;;;;5.85;1.58;;;18.00;96.80;;;;;;5069265;28;20025;-68
2023/08/03 07:25:24;;;;;;;4.68;1.55;;;18.00;96.80;;;;;;5069371;28;20114;-69
2023/08/03 07:27:52;;;;;;;3.65;1.35;;;18.00;96.90;;;;;;5073476;28;20056;-69
2023/08/03 07:30:17;;;;;;;4.10;1.40;;;18.00;96.80;;;;;;5073740;28;20066;-69
2023/08/03 07:32:43;;;;;;;2.30;1.20;;;18.00;96.70;;;;;;5072332;28;20032;-69
2023/08/03 07:35:08;;;;;;;4.13;1.40;;;17.90;96.80;;;;;;5073056;28;20024;-71
2023/08/03 07:37:34;;;;;;;4.38;1.38;;;17.90;96.80;;;;;;5073294;28;20090;-69
2023/08/03 07:40:00;;;;;;;2.88;1.27;;;17.90;96.90;;;;;;5073074;28;20525;-70
2023/08/03 07:42:25;;;;;;;3.45;1.40;;;17.90;96.90;;;;;;5072467;28;20122;-70
2023/08/03 07:44:54;;;;;;;3.47;1.20;;;18.00;96.90;;;;;;5074006;28;20074;-69
2023/08/03 07:47:20;;;;;;;3.00;1.20;;;17.90;96.90;;;;;;5074051;28;20104;-70
2023/08/03 07:49:46;;;;;;;3.90;1.48;;;18.00;96.90;;;;;;5072867;28;20513;-69
2023/08/03 07:52:11;;;;;;;3.05;1.30;;;17.90;96.90;;;;;;5070891;28;20009;-69
2023/08/03 07:54:37;;;;;;;3.08;1.15;;;18.00;97.00;;;;;;5072947;28;20090;-70
2023/08/03 07:57:04;;;;;;;2.78;1.20;;;18.00;97.00;;;;;;5073091;28;20349;-70
2023/08/03 07:59:29;;;;;;;5.07;1.50;;;18.10;96.90;;;;;;5072693;28;20400;-70
2023/08/03 08:01:55;;;;;;;4.15;1.20;;;18.10;96.90;;;;;;5064200;28;20025;-70
2023/08/03 08:04:20;;;;;;;3.90;1.50;;;18.10;97.00;;;;;;5072002;28;20082;-69
2023/08/03 08:06:46;;;;;;;4.88;1.50;;;18.10;97.00;;;;;;5072365;28;20059;-70
2023/08/03 08:09:11;;;;;;;2.88;1.33;;;18.00;97.00;;;;;;5072492;28;20028;-70
2023/08/03 08:11:37;;;;;;;3.25;1.30;;;18.10;97.10;;;;;;5070377;28;20121;-70
2023/08/03 08:14:03;;;;;;;4.28;1.40;;;18.10;97.00;;;;;;5072399;28;20063;-70
2023/08/03 08:16:28;;;;;;;5.35;1.70;;;18.10;97.10;;;;;;5072290;28;20040;-70
2023/08/03 08:18:54;;;;;;;2.85;1.33;;;18.10;97.10;;;;;;5072612;28;20452;-70
2023/08/03 08:21:19;;;;;;;3.72;1.38;;;18.10;97.20;;;;;;5071545;28;20039;-70
2023/08/03 08:23:45;;;;;;;3.60;1.50;;;18.20;97.10;;;;;;5072107;28;20044;-70
2023/08/03 08:26:15;;;;;;;4.25;1.38;;;18.20;97.10;;;;;;5072536;28;20103;-70
2023/08/03 08:28:42;;;;;;;2.08;1.23;;;18.20;97.00;;;;;;5072164;28;20016;-70
2023/08/03 08:31:08;;;;;;;2.50;1.00;;;18.20;97.00;;;;;;5071438;28;20241;-70
2023/08/03 08:33:34;;;;;;;3.92;1.25;;;18.20;97.00;;;;;;5072048;28;20418;-70
2023/08/03 08:36:00;;;;;;;2.75;1.30;;;18.20;97.10;;;;;;5071969;28;20028;-70
2023/08/03 08:38:25;;;;;;;3.28;1.40;;;18.20;97.20;;;;;;5071155;28;20490;-70
2023/08/03 08:40:51;;;;;;;4.28;1.50;;;18.30;97.30;;;;;;5071102;28;20100;-71
2023/08/03 08:43:20;;;;;;;3.53;1.40;;;18.30;97.30;;;;;;5071900;28;20161;-70
2023/08/03 08:45:46;;;;;;;4.50;1.50;;;18.40;97.40;;;;;;5071888;28;20022;-70
2023/08/03 08:48:12;;;;;;;2.30;1.45;;;18.50;97.40;;;;;;5070518;28;20032;-69
2023/08/03 08:50:38;;;;;;;3.08;1.50;;;18.50;97.30;;;;;;5071228;28;20375;-69
2023/08/03 08:53:03;;;;;;;2.25;1.40;;;18.60;97.20;;;;;;5071598;28;20036;-69
2023/08/03 08:55:30;;;;;;;5.57;1.73;;;18.70;97.10;;;;;;5071640;28;20572;-69
2023/08/03 08:57:57;;;;;;;3.72;1.52;;;18.70;97.00;;;;;;5069664;28;20078;-70
2023/08/03 09:00:25;;;;;;;3.97;1.75;;;18.80;97.00;;;;;;5071549;28;20019;-70
2023/08/03 09:02:59;;;;;;;3.65;1.70;;;18.80;97.00;;;;;;5071651;28;20027;-70
2023/08/03 09:05:26;;;;;;;4.18;1.60;;;19.00;96.90;;;;;;5070703;28;20391;-70
2023/08/03 09:08:02;;;;;;;2.88;1.65;;;19.20;96.80;;;;;;5071704;28;20098;-70
2023/08/03 09:10:29;;;;;;;4.47;2.00;;;19.60;96.60;;;;;;5071452;28;20056;-70
2023/08/03 09:12:55;;;;;;;3.30;1.77;;;19.80;95.90;;;;;;5071618;28;20021;-69
2023/08/03 09:15:42;;;;;;;2.25;1.50;;;19.90;95.60;;;;;;5070698;28;20029;-70
2023/08/03 09:18:08;;;;;;;3.50;1.83;;;20.00;95.60;;;;;;5071535;28;20074;-69
2023/08/03 09:20:34;;;;;;;3.30;1.70;;;19.90;95.40;;;;;;5071433;28;20024;-69
2023/08/03 09:23:03;;;;;;;2.75;1.60;;;19.90;95.40;;;;;;5071385;28;20337;-69
2023/08/03 09:25:29;;;;;;;2.28;1.35;;;20.00;95.50;;;;;;5063273;28;20048;-69
2023/08/03 09:27:56;;;;;;;4.13;1.98;;;20.10;95.50;;;;;;5069858;28;20062;-69
2023/08/03 09:30:22;;;;;;;4.28;2.20;;;20.30;95.40;;;;;;5071197;28;20483;-69
2023/08/03 09:32:48;;;;;;;4.72;2.10;;;20.40;95.10;;;;;;5069809;28;20491;-70
2023/08/03 09:35:22;;;;;;;4.65;2.72;;;20.70;95.00;;;;;;5071030;28;20027;-69
2023/08/03 09:37:49;;;;;;;6.38;3.28;;;20.90;94.70;;;;;;5070874;28;20025;-69
2023/08/03 09:40:17;;;;;;;7.00;2.78;;;21.10;94.50;;;;;;5070105;28;20020;-69
2023/08/03 09:42:44;;;;;;;7.15;2.42;;;21.20;94.20;;;;;;5070602;28;20271;-70
2023/08/03 09:45:10;;;;;;;4.32;2.50;;;21.50;94.10;;;;;;5069333;28;20119;-69
2023/08/03 09:47:36;;;;;;;4.75;2.63;;;21.60;93.60;;;;;;5070555;28;20020;-70
2023/08/03 09:50:03;;;;;;;5.20;2.22;;;21.50;93.40;;;;;;5068968;28;20032;-69
2023/08/03 09:52:30;;;;;;;4.45;2.25;;;21.40;93.10;;;;;;5070502;28;20051;-70
2023/08/03 09:55:06;;;;;;;5.57;2.33;;;21.40;93.20;;;;;;5070471;28;20024;-69
2023/08/03 09:57:36;;;;;;;7.47;2.80;;;21.50;93.20;;;;;;5069562;28;20055;-70
2023/08/03 10:00:06;;;;;;;4.65;2.15;;;21.50;93.20;;;;;;5070490;28;20016;-69
2023/08/03 10:02:39;;;;;;;5.57;2.15;;;21.70;93.10;;;;;;5070375;28;20017;-69
2023/08/03 10:05:08;;;;;;;5.00;2.13;;;21.80;92.80;;;;;;5069636;28;20066;-69
2023/08/03 10:07:41;;;;;;;4.20;1.92;;;21.90;92.50;;;;;;5070230;28;20017;-69
2023/08/03 10:10:11;;;;;;;6.72;2.30;;;21.80;92.50;;;;;;5070273;28;20027;-70
2023/08/03 10:12:43;;;;;;;3.58;1.80;;;21.60;92.30;;;;;;5069398;28;20020;-71
2023/08/03 10:15:10;;;;;;;3.65;1.52;;;21.40;92.40;;;;;;5070072;28;20025;-70
2023/08/03 10:17:38;;;;;;;3.95;1.88;;;21.20;92.60;;;;;;5070287;28;20047;-70
2023/08/03 10:20:04;;;;;;;4.53;1.60;;;21.10;92.90;;;;;;5070156;28;20129;-69
2023/08/03 10:22:30;;;;;;;3.83;1.85;;;21.10;93.10;;;;;;5069592;28;20529;-69
2023/08/03 10:25:14;;;;;;;4.65;1.75;;;21.20;93.10;;;;;;5069835;28;20033;-70
2023/08/03 10:27:40;;;;;;;6.03;1.83;;;21.40;93.10;;;;;;5070103;28;20028;-70
2023/08/03 10:30:06;;;;;;;4.10;2.00;;;21.60;93.00;;;;;;5068180;28;20020;-70
2023/08/03 10:32:31;;;;;;;6.35;2.20;;;21.70;92.70;;;;;;5069858;28;20029;-70
2023/08/03 10:35:36;;;;;;;3.35;1.83;;;21.80;92.30;;;;;;5069759;28;20070;-70
2023/08/03 10:38:02;;;;;;;4.28;2.00;;;21.80;92.10;;;;;;5069955;28;20031;-70
2023/08/03 10:40:28;;;;;;;5.32;2.00;;;21.70;92.10;;;;;;5069094;28;20013;-71
2023/08/03 10:43:08;;;;;;;3.28;2.00;;;21.60;92.20;;;;;;5069881;28;20031;-70
2023/08/03 10:45:35;;;;;;;2.70;1.60;;;21.40;92.30;;;;;;5069608;28;20483;-70
2023/08/03 10:48:28;;;;;;;2.67;1.30;;;21.30;92.20;;;;;;5070190;28;20056;-70
2023/08/03 10:51:01;;;;;;;2.42;1.23;;;21.20;92.00;;;;;;5065877;28;20186;-70
2023/08/03 10:53:27;;;;;;;2.72;1.30;;;21.10;91.90;;;;;;5049625;28;20024;-70
2023/08/03 10:56:07;;;;;;;5.40;1.63;;;21.10;91.90;;;;;;5049317;28;20021;-70
2023/08/03 10:58:48;;;;;;;1.88;1.10;;;21.00;91.60;;;;;;5054444;28;20021;-70
2023/08/03 11:01:20;;;;;;;3.30;1.33;;;21.00;91.60;;;;;;5071285;28;20028;-70
2023/08/03 11:03:45;;;;;;;4.13;1.42;;;20.80;91.70;;;;;;5071946;28;20031;-70
2023/08/03 11:06:11;;;;;;;3.92;1.50;;;20.80;91.80;;;;;;5073651;28;20029;-70
2023/08/03 11:08:38;;;;;;;3.08;1.45;;;20.80;91.80;;;;;;5073878;28;20063;-70
2023/08/03 11:11:09;;;;;;;3.83;1.65;;;20.90;91.90;;;;;;5073824;28;20482;-70
2023/08/03 11:13:34;;;;;;;2.90;1.27;;;21.10;91.80;;;;;;5069354;28;20486;-70
2023/08/03 11:16:00;;;;;;;4.25;1.63;;;21.40;91.70;;;;;;5073468;28;20020;-70
2023/08/03 11:18:26;;;;;;;3.00;1.40;;;21.60;91.60;;;;;;5073454;28;20032;-70
2023/08/03 11:20:51;;;;;;;3.03;1.50;;;21.70;91.40;;;;;;5073590;28;20024;-69
2023/08/03 11:23:17;;;;;;;5.80;1.60;;;21.70;91.20;;;;;;5072807;28;20024;-70
2023/08/03 11:25:42;;;;;;;6.18;1.85;;;21.60;91.10;;;;;;5073374;28;20041;-71
2023/08/03 11:28:08;;;;;;;4.30;1.60;;;21.50;91.10;;;;;;5073303;28;20047;-71
2023/08/03 11:30:44;;;;;;;3.00;1.40;;;21.30;91.10;;;;;;5071503;28;20035;-70
2023/08/03 11:33:14;;;;;;;2.55;1.65;;;21.20;91.40;;;;;;5073455;28;20055;-70
2023/08/03 11:35:41;;;;;;;4.50;1.53;;;21.10;91.50;;;;;;5073305;28;20383;-70
2023/08/03 11:38:10;;;;;;;4.10;1.60;;;21.10;91.80;;;;;;5073248;28;20359;-70
2023/08/03 11:40:36;;;;;;;2.03;1.30;;;21.00;91.90;;;;;;5072960;28;20017;-70
2023/08/03 11:43:02;;;;;;;4.85;1.90;;;21.00;92.00;;;;;;5073521;28;20031;-70
2023/08/03 11:45:29;;;;;;;4.93;2.00;;;21.10;92.00;;;;;;5073108;28;20060;-70
2023/08/03 11:47:58;;;;;;;3.10;1.65;;;21.10;92.10;;;;;;5072424;28;20032;-70
2023/08/03 11:50:25;;;;;;;5.75;1.75;;;21.10;92.10;;;;;;5072160;28;20020;-69
2023/08/03 11:53:00;;;;;;;3.47;1.50;;;21.10;91.90;;;;;;5074162;28;20103;-69
2023/08/03 11:55:32;;;;;;;3.13;1.50;;;21.00;91.80;;;;;;5072946;28;20021;-70
2023/08/03 11:58:07;;;;;;;2.05;1.30;;;21.00;91.90;;;;;;5073452;28;20024;-69
2023/08/03 12:00:33;;;;;;;2.88;1.15;;;21.00;91.80;;;;;;5072697;28;20402;-69
2023/08/03 12:02:58;;;;;;;3.45;1.50;;;21.00;91.80;;;;;;5071557;28;20028;-70
2023/08/03 12:05:24;;;;;;;4.72;1.70;;;21.00;91.70;;;;;;5072075;28;20035;-69
2023/08/03 12:07:54;;;;;;;2.38;1.30;;;20.90;91.60;;;;;;5072605;28;20016;-70
2023/08/03 12:10:20;;;;;;;2.58;1.40;;;20.90;91.60;;;;;;5072778;28;20028;-70
2023/08/03 12:12:45;;;;;;;2.30;1.30;;;20.80;91.70;;;;;;5070517;28;20497;-69
2023/08/03 12:15:11;;;;;;;3.53;1.35;;;20.90;91.70;;;;;;5072505;28;20451;-70
2023/08/03 12:17:37;;;;;;;2.72;1.20;;;20.90;91.90;;;;;;5072459;28;20016;-70
2023/08/03 12:20:04;;;;;;;4.35;1.38;;;20.90;91.80;;;;;;5071876;28;20357;-70
2023/08/03 12:22:31;;;;;;;2.70;1.48;;;20.90;91.60;;;;;;5072416;28;20070;-70
2023/08/03 12:24:57;;;;;;;2.83;1.20;;;20.90;91.60;;;;;;5072352;28;20111;-70
2023/08/03 12:27:22;;;;;;;2.60;1.10;;;21.00;91.50;;;;;;5071828;28;20100;-70
2023/08/03 12:29:48;;;;;;;1.98;1.20;;;21.10;91.30;;;;;;5070876;28;20024;-71
2023/08/03 12:32:14;;;;;;;4.55;1.42;;;21.40;91.40;;;;;;5072079;28;20334;-71
2023/08/03 12:34:39;;;;;;;3.63;1.20;;;21.60;91.10;;;;;;5072436;28;20024;-70
2023/08/03 12:37:05;;;;;;;4.55;1.10;;;21.40;90.90;;;;;;5068904;28;20367;-70
2023/08/03 12:39:31;;;;;;;3.75;1.10;;;21.20;91.00;;;;;;5072060;28;20021;-70
2023/08/03 12:41:56;;;;;;;1.30;0.80;;;21.00;91.00;;;;;;5072166;28;20024;-70
2023/08/03 12:44:24;;;;;;;1.10;0.80;;;20.70;90.90;;;;;;5071104;28;20027;-71
2023/08/03 12:46:49;;;;;;;0.77;0.65;;;20.50;90.90;;;;;;5071924;28;20111;-71